Time;durP1;ratioP1;P1;durP2;ratioP2;P2;SDS_P1;SDS_P2;PMS_P1;PMS_P2;Temp;Humidity;BMP_temperature;BMP_pressure;BME280_temperature;BME280_humidity;BME280_pressure;Samples;Min_cycle;Max_cycle;Signal;HPM_P1;HPM_P2
2022/01/21 00:00:16;;;;;;;20.88;4.90;;;1.70;86.90;;;;;;5061262;28;20412;-73
2022/01/21 00:02:42;;;;;;;23.08;5.47;;;1.70;89.30;;;;;;5060174;28;20385;-72
2022/01/21 00:05:08;;;;;;;13.82;4.43;;;1.70;85.40;;;;;;5062255;28;20442;-74
2022/01/21 00:07:34;;;;;;;20.27;4.78;;;1.80;87.10;;;;;;5037004;28;20805;-74
2022/01/21 00:09:59;;;;;;;18.17;4.33;;;1.80;83.80;;;;;;5054644;28;20386;-74
2022/01/21 00:12:28;;;;;;;19.97;4.40;;;1.90;82.50;;;;;;5053871;28;20408;-75
2022/01/21 00:14:53;;;;;;;15.13;4.90;;;1.90;82.00;;;;;;5053406;28;20409;-74
2022/01/21 00:17:21;;;;;;;18.10;4.97;;;1.80;82.20;;;;;;5035001;28;20424;-75
2022/01/21 00:19:51;;;;;;;18.25;4.05;;;1.80;82.60;;;;;;5053360;28;20805;-74
2022/01/21 00:30:28;;;;;;;18.63;4.22;;;1.90;82.60;;;;;;5067269;28;20762;-75
2022/01/21 00:32:54;;;;;;;17.30;5.23;;;1.90;83.20;;;;;;5054156;28;20385;-74
2022/01/21 00:35:21;;;;;;;17.33;4.70;;;1.60;83.00;;;;;;5056439;28;20496;-74
2022/01/21 00:37:48;;;;;;;21.95;5.32;;;1.40;88.20;;;;;;5055983;28;20413;-74
2022/01/21 00:40:22;;;;;;;16.65;4.50;;;1.30;90.80;;;;;;5050509;28;20402;-74
2022/01/21 00:43:12;;;;;;;19.08;4.80;;;1.20;93.30;;;;;;5053747;28;20393;-72
2022/01/21 00:45:38;;;;;;;20.20;4.68;;;1.20;94.60;;;;;;5053369;28;20397;-74
2022/01/21 00:48:04;;;;;;;15.43;4.43;;;1.50;93.10;;;;;;5052934;28;20856;-73
2022/01/21 00:50:30;;;;;;;23.35;4.93;;;1.60;89.40;;;;;;5054819;28;20770;-75
2022/01/21 00:52:55;;;;;;;18.02;4.10;;;1.60;86.90;;;;;;5054997;28;20396;-72
2022/01/21 00:55:21;;;;;;;21.93;4.07;;;1.70;84.90;;;;;;5053085;28;20488;-74
2022/01/21 00:57:47;;;;;;;22.20;4.80;;;1.90;83.40;;;;;;5053552;28;20443;-73
2022/01/21 01:00:13;;;;;;;17.52;3.63;;;1.90;81.20;;;;;;5035249;28;20401;-73
2022/01/21 01:02:39;;;;;;;23.98;5.00;;;1.90;81.70;;;;;;5052419;28;20389;-74
2022/01/21 01:05:06;;;;;;;17.70;3.80;;;1.90;80.90;;;;;;5054022;28;20393;-73
2022/01/21 01:07:32;;;;;;;26.30;4.70;;;2.00;80.90;;;;;;5057099;28;20778;-72
2022/01/21 01:10:00;;;;;;;25.65;5.30;;;2.00;80.70;;;;;;5055782;28;20389;-74
2022/01/21 01:19:56;;;;;;;15.90;4.32;;;1.80;82.20;;;;;;5047376;28;20409;-72
2022/01/21 01:20:47;;;;;;;22.92;5.57;;;1.70;84.80;;;;;;5046677;28;20484;-74
2022/01/21 01:23:29;;;;;;;25.65;5.20;;;1.60;87.30;;;;;;5046396;28;20407;-74
2022/01/21 01:28:39;;;;;;;18.00;5.03;;;1.60;84.80;;;;;;5060078;28;20423;-74
2022/01/21 01:31:05;;;;;;;21.70;5.30;;;1.30;88.40;;;;;;5059315;28;20389;-72
2022/01/21 01:33:36;;;;;;;21.98;6.00;;;1.20;90.40;;;;;;5062858;28;20405;-75
2022/01/21 01:36:06;;;;;;;21.17;3.95;;;1.30;92.70;;;;;;5040072;28;20389;-72
2022/01/21 01:39:04;;;;;;;19.83;5.05;;;1.50;93.70;;;;;;5057019;28;20448;-73
2022/01/21 01:41:23;;;;;;;14.85;4.75;;;1.80;86.90;;;;;;5058284;28;20394;-73
2022/01/21 01:52:03;;;;;;;23.08;5.88;;;1.90;80.50;;;;;;5051370;28;20384;-73
2022/01/21 01:54:31;;;;;;;18.33;4.20;;;1.90;80.20;;;;;;5050834;28;20484;-75
2022/01/21 01:56:57;;;;;;;12.50;4.00;;;1.90;81.40;;;;;;5050460;28;20389;-72
2022/01/21 01:59:25;;;;;;;19.27;4.80;;;2.00;80.70;;;;;;5049497;28;20470;-73
2022/01/21 02:02:14;;;;;;;17.23;5.30;;;2.10;79.30;;;;;;5049263;28;20873;-73
2022/01/21 02:04:42;;;;;;;19.80;5.05;;;2.10;80.00;;;;;;5049653;28;20515;-73
2022/01/21 02:07:07;;;;;;;19.87;5.37;;;1.80;79.80;;;;;;5050612;28;20801;-72
2022/01/21 02:09:34;;;;;;;20.17;5.10;;;1.50;83.70;;;;;;5050471;28;20489;-72
2022/01/21 02:11:59;;;;;;;22.30;6.10;;;1.40;87.80;;;;;;5050618;28;20890;-71
2022/01/21 02:14:35;;;;;;;25.58;5.70;;;1.40;92.20;;;;;;5050688;28;20401;-73
2022/01/21 02:22:19;;;;;;;21.35;5.03;;;1.70;90.50;;;;;;5051022;28;20422;-73
2022/01/21 02:25:00;;;;;;;22.52;5.15;;;1.80;89.50;;;;;;5032640;28;20393;-71
2022/01/21 02:27:26;;;;;;;20.23;5.55;;;1.80;88.70;;;;;;5050072;28;20894;-71
2022/01/21 02:29:59;;;;;;;23.27;5.20;;;1.80;87.80;;;;;;5051030;28;20469;-73
2022/01/21 02:32:25;;;;;;;14.23;4.93;;;2.00;89.30;;;;;;5055006;28;20404;-73
2022/01/21 02:34:50;;;;;;;22.05;5.22;;;2.00;85.40;;;;;;5067227;28;20404;-72
2022/01/21 02:37:20;;;;;;;21.80;4.50;;;1.90;86.20;;;;;;5057417;28;20398;-72
2022/01/21 02:39:47;;;;;;;22.55;4.40;;;2.00;87.20;;;;;;5051394;28;20908;-71
2022/01/21 02:42:13;;;;;;;22.77;5.70;;;2.00;86.20;;;;;;5051465;28;20389;-70
2022/01/21 02:44:39;;;;;;;17.30;4.95;;;2.10;85.90;;;;;;5050401;28;20519;-72
2022/01/21 02:47:06;;;;;;;15.20;4.40;;;2.10;85.40;;;;;;5049584;28;20433;-72
2022/01/21 02:49:31;;;;;;;18.85;5.05;;;2.10;85.90;;;;;;5050683;28;20388;-71
2022/01/21 02:52:01;;;;;;;16.20;4.70;;;2.00;86.20;;;;;;5050293;28;20854;-71
2022/01/21 02:54:32;;;;;;;17.15;4.50;;;2.10;88.10;;;;;;5050359;28;20511;-72
2022/01/21 02:56:58;;;;;;;21.10;4.07;;;2.10;85.20;;;;;;5052441;28;20385;-72
2022/01/21 02:59:24;;;;;;;16.80;3.97;;;2.20;83.90;;;;;;5060125;28;20373;-72
2022/01/21 03:01:50;;;;;;;15.90;3.60;;;2.30;81.80;;;;;;5055482;28;20390;-72
2022/01/21 03:04:25;;;;;;;20.90;3.70;;;2.40;80.00;;;;;;5050037;28;20387;-72
2022/01/21 03:06:51;;;;;;;13.57;3.90;;;2.50;78.30;;;;;;5049638;28;20401;-70
2022/01/21 03:09:17;;;;;;;15.13;4.33;;;2.70;78.10;;;;;;5049478;28;20408;-71
2022/01/21 03:11:42;;;;;;;19.17;4.30;;;2.60;74.80;;;;;;5049539;28;20472;-72
2022/01/21 03:14:08;;;;;;;12.60;3.67;;;2.50;77.50;;;;;;5049931;28;20412;-72
2022/01/21 03:16:33;;;;;;;16.70;4.30;;;2.40;79.70;;;;;;5051114;28;20459;-72
2022/01/21 03:18:59;;;;;;;19.25;4.03;;;2.40;80.10;;;;;;5035455;28;20409;-71
2022/01/21 03:21:24;;;;;;;17.30;4.00;;;2.50;80.60;;;;;;5054144;28;20386;-72
2022/01/21 03:23:53;;;;;;;19.27;4.10;;;2.40;79.10;;;;;;5053484;28;20454;-71
2022/01/21 03:26:24;;;;;;;12.70;4.30;;;2.30;79.90;;;;;;5053361;28;20538;-71
2022/01/21 03:28:53;;;;;;;15.55;4.43;;;2.10;82.60;;;;;;5054557;28;20393;-71
2022/01/21 03:31:19;;;;;;;14.25;4.20;;;2.00;85.60;;;;;;5065317;28;20393;-71
2022/01/21 03:33:45;;;;;;;14.05;3.80;;;2.20;81.80;;;;;;5035139;28;20875;-72
2022/01/21 03:36:12;;;;;;;15.02;4.35;;;2.00;82.60;;;;;;5052924;28;20409;-71
2022/01/21 03:38:38;;;;;;;14.77;4.30;;;1.90;84.30;;;;;;5034883;28;20386;-71
2022/01/21 03:41:04;;;;;;;18.75;3.83;;;1.80;86.10;;;;;;5052905;28;20867;-72
2022/01/21 03:43:31;;;;;;;9.63;3.30;;;1.80;86.90;;;;;;5053224;28;20851;-72
2022/01/21 03:45:57;;;;;;;21.10;4.55;;;1.80;86.90;;;;;;5053099;28;20384;-72
2022/01/21 03:48:23;;;;;;;17.33;4.22;;;1.50;88.00;;;;;;5053958;28;20389;-71
2022/01/21 03:50:49;;;;;;;17.05;3.97;;;1.40;90.80;;;;;;5054058;28;20435;-72
2022/01/21 03:53:15;;;;;;;19.80;4.70;;;1.30;93.10;;;;;;5053103;28;20424;-71
2022/01/21 03:55:41;;;;;;;14.20;4.57;;;1.40;95.30;;;;;;5052975;28;20487;-70
2022/01/21 03:58:09;;;;;;;15.52;4.70;;;1.30;93.50;;;;;;5052561;28;20785;-71
2022/01/21 04:00:44;;;;;;;18.88;4.63;;;1.10;95.20;;;;;;5053493;28;20386;-72
2022/01/21 04:03:10;;;;;;;21.27;4.20;;;1.20;98.10;;;;;;5052018;28;20389;-72
2022/01/21 04:05:36;;;;;;;14.85;4.65;;;1.40;99.90;;;;;;5052455;28;20464;-72
2022/01/21 04:08:04;;;;;;;21.25;4.20;;;1.60;97.90;;;;;;5051587;28;20393;-71
2022/01/21 04:10:30;;;;;;;13.60;4.23;;;1.80;94.70;;;;;;5026923;28;20427;-71
2022/01/21 04:12:56;;;;;;;20.77;4.53;;;1.90;92.80;;;;;;5052692;28;20381;-71
2022/01/21 04:15:22;;;;;;;18.90;4.88;;;1.90;90.60;;;;;;5053020;28;20427;-71
2022/01/21 04:17:48;;;;;;;16.20;4.20;;;2.00;89.40;;;;;;5052403;28;20389;-71
2022/01/21 04:20:16;;;;;;;18.00;4.50;;;2.00;89.70;;;;;;5052429;28;20392;-71
2022/01/21 04:22:42;;;;;;;17.00;4.05;;;1.90;91.30;;;;;;5052102;28;20393;-72
2022/01/21 04:25:08;;;;;;;19.45;4.43;;;1.90;92.40;;;;;;5055077;28;20480;-72
2022/01/21 04:27:33;;;;;;;14.65;4.68;;;1.90;93.00;;;;;;5059128;28;20412;-72
2022/01/21 04:29:59;;;;;;;23.80;4.82;;;2.00;91.30;;;;;;5071907;28;20397;-72
2022/01/21 04:32:25;;;;;;;24.45;5.07;;;1.90;90.80;;;;;;5042797;28;20425;-71
2022/01/21 04:34:50;;;;;;;19.40;4.70;;;1.80;91.70;;;;;;5057073;28;20416;-73
2022/01/21 04:37:17;;;;;;;26.95;4.88;;;1.80;93.20;;;;;;5055212;28;20408;-73
2022/01/21 04:39:55;;;;;;;34.60;5.63;;;2.00;92.70;;;;;;5055166;28;20411;-72
2022/01/21 04:47:39;;;;;;;20.17;4.18;;;1.90;91.80;;;;;;5058057;28;20407;-72
2022/01/21 04:50:10;;;;;;;22.67;4.20;;;2.40;86.00;;;;;;5052456;28;20392;-70
2022/01/21 04:52:36;;;;;;;17.27;3.67;;;2.70;75.50;;;;;;5052963;28;20417;-71
2022/01/21 04:55:02;;;;;;;14.23;4.32;;;2.80;71.70;;;;;;5052100;28;20963;-71
2022/01/21 04:57:29;;;;;;;21.25;4.70;;;2.70;71.80;;;;;;5054243;28;20512;-71
2022/01/21 04:59:55;;;;;;;19.47;6.00;;;2.50;74.30;;;;;;5053453;28;20424;-71
2022/01/21 05:02:20;;;;;;;23.15;5.70;;;2.30;78.60;;;;;;5053731;28;20405;-73
2022/01/21 05:04:46;;;;;;;20.37;5.07;;;2.30;81.90;;;;;;5052761;28;20394;-72
2022/01/21 05:07:14;;;;;;;17.13;5.10;;;2.20;82.90;;;;;;5052598;28;20389;-72
2022/01/21 05:09:40;;;;;;;23.27;4.90;;;2.10;83.40;;;;;;5053053;28;20382;-72
2022/01/21 05:12:08;;;;;;;15.90;4.07;;;2.00;85.10;;;;;;5034630;28;20469;-72
2022/01/21 05:14:51;;;;;;;22.55;4.85;;;2.00;86.50;;;;;;5051586;28;20421;-72
2022/01/21 05:17:17;;;;;;;19.13;4.38;;;2.00;85.50;;;;;;5051459;28;20447;-72
2022/01/21 05:19:42;;;;;;;11.27;3.80;;;2.00;85.50;;;;;;5061248;28;20389;-72
2022/01/21 05:22:08;;;;;;;21.30;4.63;;;1.90;87.00;;;;;;5063792;28;20413;-71
2022/01/21 05:24:34;;;;;;;17.23;4.90;;;1.90;88.00;;;;;;5051473;28;20397;-72
2022/01/21 05:27:01;;;;;;;20.80;5.00;;;1.80;87.00;;;;;;5051619;28;20381;-71
2022/01/21 05:29:32;;;;;;;17.83;3.40;;;2.00;84.50;;;;;;5053776;28;20433;-73
2022/01/21 05:31:59;;;;;;;17.02;3.90;;;2.30;80.90;;;;;;5051053;28;20389;-71
2022/01/21 05:34:25;;;;;;;15.93;4.90;;;2.30;76.90;;;;;;5051841;28;20413;-72
2022/01/21 05:36:51;;;;;;;18.08;4.95;;;2.20;80.10;;;;;;5051265;28;20381;-71
2022/01/21 05:39:18;;;;;;;21.10;4.60;;;2.00;82.00;;;;;;5050863;28;20388;-71
2022/01/21 05:41:50;;;;;;;25.10;5.60;;;2.10;85.80;;;;;;5051562;28;20404;-71
2022/01/21 05:46:23;;;;;;;22.08;5.25;;;2.20;81.30;;;;;;5050678;28;20409;-71
2022/01/21 05:47:07;;;;;;;23.85;5.40;;;2.10;84.50;;;;;;5050552;28;20404;-71
2022/01/21 05:49:35;;;;;;;17.00;5.10;;;2.00;85.70;;;;;;5050870;28;20401;-71
2022/01/21 05:52:06;;;;;;;15.95;5.25;;;2.10;85.50;;;;;;5051259;28;20397;-71
2022/01/21 05:54:32;;;;;;;13.90;4.30;;;2.00;85.70;;;;;;5051506;28;20673;-72
2022/01/21 05:56:58;;;;;;;24.30;5.80;;;2.00;88.20;;;;;;5051405;28;20924;-72
2022/01/21 05:59:24;;;;;;;15.80;5.20;;;2.20;88.10;;;;;;5050843;28;20503;-72
2022/01/21 06:01:50;;;;;;;23.97;6.03;;;2.20;84.90;;;;;;5052013;28;20369;-71
2022/01/21 06:04:16;;;;;;;27.30;5.68;;;2.30;83.20;;;;;;5050779;28;20397;-71
2022/01/21 06:06:41;;;;;;;18.23;5.70;;;2.30;83.00;;;;;;5051726;28;20793;-71
2022/01/21 06:09:07;;;;;;;23.93;5.80;;;2.30;81.70;;;;;;5051639;28;20855;-72
2022/01/21 06:11:33;;;;;;;19.83;5.60;;;2.40;80.10;;;;;;5053948;28;20814;-71
2022/01/21 06:14:00;;;;;;;16.73;5.82;;;2.30;78.80;;;;;;5055311;28;20451;-72
2022/01/21 06:16:26;;;;;;;17.48;5.80;;;2.30;80.00;;;;;;5054288;28;20386;-72
2022/01/21 06:18:51;;;;;;;16.42;5.80;;;2.30;79.70;;;;;;5052343;28;20487;-72
2022/01/21 06:21:17;;;;;;;24.77;6.15;;;2.00;81.00;;;;;;5051555;28;20484;-72
2022/01/21 06:23:43;;;;;;;28.83;5.93;;;2.00;83.10;;;;;;5051940;28;20382;-72
2022/01/21 06:26:09;;;;;;;22.30;5.60;;;2.00;84.30;;;;;;5051544;28;20389;-72
2022/01/21 06:28:35;;;;;;;20.90;5.70;;;1.90;84.00;;;;;;5051397;28;20390;-71
2022/01/21 06:31:02;;;;;;;23.17;6.40;;;1.80;85.30;;;;;;5071070;28;20382;-71
2022/01/21 06:33:27;;;;;;;18.23;5.78;;;1.80;86.30;;;;;;5056275;28;20797;-71
2022/01/21 06:35:53;;;;;;;16.80;5.50;;;1.90;84.10;;;;;;5050957;28;20402;-71
2022/01/21 06:38:20;;;;;;;18.25;5.68;;;1.80;85.80;;;;;;5050484;28;20401;-71
2022/01/21 06:40:46;;;;;;;17.92;6.07;;;2.00;85.70;;;;;;5051284;28;20385;-72
2022/01/21 06:43:13;;;;;;;20.00;5.80;;;1.90;82.10;;;;;;5050655;28;20385;-71
2022/01/21 06:45:39;;;;;;;20.38;6.95;;;1.90;85.90;;;;;;5052088;28;20400;-73
2022/01/21 06:48:04;;;;;;;28.77;5.82;;;2.10;80.20;;;;;;5032852;28;20393;-76
2022/01/21 06:50:34;;;;;;;18.50;6.00;;;2.30;84.80;;;;;;5057708;28;20400;-77
2022/01/21 06:53:00;;;;;;;20.80;6.40;;;2.30;80.30;;;;;;5055170;28;20543;-75
2022/01/21 06:55:25;;;;;;;17.35;6.15;;;2.20;80.50;;;;;;5037571;28;20560;-76
2022/01/21 06:57:51;;;;;;;15.00;5.17;;;2.20;79.90;;;;;;5037166;28;20405;-75
2022/01/21 07:00:19;;;;;;;19.13;6.17;;;2.30;76.50;;;;;;5054361;28;20393;-72
2022/01/21 07:02:49;;;;;;;13.15;5.10;;;2.30;75.30;;;;;;5054368;28;20392;-72
2022/01/21 07:05:15;;;;;;;15.32;5.20;;;2.20;76.90;;;;;;5051015;28;20805;-71
2022/01/21 07:07:41;;;;;;;20.38;5.90;;;2.20;77.70;;;;;;5054845;28;20392;-72
2022/01/21 07:10:10;;;;;;;22.03;5.80;;;2.10;77.10;;;;;;5053790;28;20405;-71
2022/01/21 07:12:36;;;;;;;14.93;6.07;;;2.00;80.70;;;;;;5052164;28;20421;-71
2022/01/21 07:15:03;;;;;;;21.50;7.10;;;2.00;79.60;;;;;;5057731;28;20420;-71
2022/01/21 07:17:29;;;;;;;17.30;6.82;;;1.70;81.40;;;;;;5054727;28;20381;-71
2022/01/21 07:19:54;;;;;;;21.50;6.40;;;1.50;87.00;;;;;;5053430;28;20393;-71
2022/01/21 07:22:20;;;;;;;17.80;6.38;;;1.50;90.80;;;;;;5053811;28;20472;-73
2022/01/21 07:24:46;;;;;;;20.63;6.32;;;1.50;91.30;;;;;;5052378;28;20401;-75
2022/01/21 07:27:11;;;;;;;24.00;7.17;;;1.50;91.60;;;;;;5056289;28;20476;-71
2022/01/21 07:29:37;;;;;;;17.03;6.27;;;1.60;90.10;;;;;;5068558;28;20528;-72
2022/01/21 07:32:03;;;;;;;21.70;7.05;;;1.50;89.90;;;;;;5066162;28;20774;-74
2022/01/21 07:34:28;;;;;;;19.50;6.97;;;1.50;91.30;;;;;;5056342;28;20421;-73
2022/01/21 07:36:55;;;;;;;19.53;6.50;;;1.50;92.10;;;;;;5053223;28;20409;-71
2022/01/21 07:39:22;;;;;;;18.80;7.00;;;1.50;91.20;;;;;;5059392;28;20427;-72
2022/01/21 07:41:48;;;;;;;26.42;9.10;;;1.30;91.70;;;;;;5053006;28;20492;-71
2022/01/21 07:44:15;;;;;;;19.90;7.70;;;1.30;96.30;;;;;;5052624;28;20405;-74
2022/01/21 07:46:43;;;;;;;26.75;8.13;;;1.60;91.40;;;;;;5053895;28;20916;-75
2022/01/21 07:49:10;;;;;;;21.45;7.70;;;1.60;91.50;;;;;;5057672;28;20397;-75
2022/01/21 07:51:35;;;;;;;26.50;7.60;;;1.60;92.70;;;;;;5031937;28;20405;-76
2022/01/21 07:54:02;;;;;;;17.63;7.10;;;1.60;94.20;;;;;;5056881;28;20401;-74
2022/01/21 07:56:28;;;;;;;20.88;7.75;;;1.80;93.60;;;;;;5053955;28;20385;-74
2022/01/21 07:58:54;;;;;;;23.48;7.05;;;1.80;91.60;;;;;;5053997;28;20415;-74
2022/01/21 08:01:19;;;;;;;22.87;7.57;;;1.80;92.10;;;;;;5055090;28;20504;-74
2022/01/21 08:03:45;;;;;;;38.17;7.20;;;1.80;91.60;;;;;;5051641;28;20385;-74
2022/01/21 08:06:11;;;;;;;14.30;6.75;;;2.00;90.10;;;;;;5055906;28;20908;-76
2022/01/21 08:08:36;;;;;;;15.90;6.30;;;2.00;87.50;;;;;;5058075;28;20427;-76
2022/01/21 08:11:02;;;;;;;17.23;6.87;;;2.00;86.60;;;;;;5057657;28;20485;-75
2022/01/21 08:13:28;;;;;;;22.05;6.82;;;2.30;87.80;;;;;;5052934;28;21137;-75
2022/01/21 08:15:55;;;;;;;18.97;6.60;;;2.40;80.20;;;;;;5052311;28;20417;-73
2022/01/21 08:18:21;;;;;;;14.15;6.20;;;2.50;80.30;;;;;;5064024;28;20760;-75
2022/01/21 08:20:46;;;;;;;23.35;6.60;;;2.50;77.70;;;;;;5062772;28;20435;-76
2022/01/21 08:23:12;;;;;;;20.80;5.90;;;2.60;77.60;;;;;;5052242;28;20762;-74
2022/01/21 08:25:39;;;;;;;18.40;6.03;;;2.70;75.50;;;;;;5051877;28;20393;-74
2022/01/21 08:28:05;;;;;;;16.30;5.75;;;2.70;77.40;;;;;;5052657;28;20409;-74
2022/01/21 08:30:30;;;;;;;17.70;6.60;;;2.80;76.50;;;;;;5057775;28;20398;-75
2022/01/21 08:32:56;;;;;;;23.63;7.00;;;2.70;74.10;;;;;;5050883;28;20416;-76
2022/01/21 08:35:23;;;;;;;15.18;6.25;;;2.60;75.20;;;;;;5045542;28;20409;-73
2022/01/21 08:37:52;;;;;;;23.77;6.03;;;2.60;75.20;;;;;;5049656;28;20576;-77
2022/01/21 08:40:18;;;;;;;19.02;4.78;;;2.60;73.70;;;;;;5047192;28;20401;-73
2022/01/21 08:42:44;;;;;;;16.80;6.05;;;2.60;74.10;;;;;;5045688;28;20402;-77
2022/01/21 08:45:11;;;;;;;25.67;6.68;;;2.50;76.60;;;;;;5047706;28;20992;-75
2022/01/21 08:47:40;;;;;;;20.50;5.50;;;2.50;77.60;;;;;;5063628;28;20467;-75
2022/01/21 08:50:08;;;;;;;20.65;5.93;;;2.50;80.60;;;;;;5043429;28;20409;-76
2022/01/21 08:52:37;;;;;;;24.90;6.78;;;2.90;76.00;;;;;;5053474;28;20910;-76
2022/01/21 08:55:05;;;;;;;20.50;5.80;;;2.80;72.10;;;;;;5032985;28;20432;-74
2022/01/21 08:57:32;;;;;;;19.48;7.03;;;2.70;74.20;;;;;;5029952;28;20420;-76
2022/01/21 08:59:58;;;;;;;16.23;5.87;;;2.50;77.80;;;;;;5053429;28;20433;-75
2022/01/21 09:02:24;;;;;;;12.45;5.47;;;2.60;80.00;;;;;;5031181;28;20459;-76
2022/01/21 09:04:50;;;;;;;15.93;5.97;;;2.70;77.30;;;;;;5045937;28;20410;-74
2022/01/21 09:07:15;;;;;;;13.60;5.40;;;2.70;77.80;;;;;;5051717;28;20428;-73
2022/01/21 09:09:41;;;;;;;12.93;6.07;;;2.70;77.60;;;;;;5070412;28;20396;-74
2022/01/21 09:12:07;;;;;;;16.67;5.70;;;2.80;78.80;;;;;;5060907;28;20946;-75
2022/01/21 09:14:33;;;;;;;14.43;5.80;;;3.00;75.80;;;;;;5050789;28;20418;-75
2022/01/21 09:16:59;;;;;;;18.90;5.78;;;3.00;73.50;;;;;;5052291;28;20389;-75
2022/01/21 09:19:25;;;;;;;16.05;5.70;;;3.00;73.90;;;;;;5050509;28;20484;-74
2022/01/21 09:21:51;;;;;;;13.27;5.43;;;3.10;72.00;;;;;;5057404;28;20459;-75
2022/01/21 09:24:20;;;;;;;13.68;5.45;;;3.10;72.70;;;;;;5064881;28;20409;-74
2022/01/21 09:26:46;;;;;;;19.07;6.50;;;3.10;74.40;;;;;;5065305;28;20500;-76
2022/01/21 09:29:12;;;;;;;19.73;5.83;;;3.20;73.50;;;;;;5062566;28;20412;-75
2022/01/21 09:31:38;;;;;;;16.98;5.53;;;3.20;73.70;;;;;;5033108;28;20408;-75
2022/01/21 09:34:05;;;;;;;16.52;5.80;;;3.30;72.20;;;;;;5047452;28;20490;-74
2022/01/21 09:36:32;;;;;;;20.85;6.10;;;3.60;70.40;;;;;;5029443;28;20562;-76
2022/01/21 09:38:58;;;;;;;15.17;4.90;;;3.80;67.50;;;;;;5046303;28;21306;-75
2022/01/21 09:41:24;;;;;;;15.70;5.20;;;4.00;64.70;;;;;;5051476;28;20386;-76
2022/01/21 09:43:53;;;;;;;15.50;5.10;;;4.10;61.80;;;;;;5052567;28;20558;-75
2022/01/21 09:46:25;;;;;;;13.32;5.60;;;4.10;63.20;;;;;;5048771;28;20408;-75
2022/01/21 09:49:07;;;;;;;18.95;5.00;;;4.10;63.30;;;;;;5045757;28;20920;-74
2022/01/21 09:51:34;;;;;;;15.35;5.40;;;4.20;63.20;;;;;;5046624;28;20475;-74
2022/01/21 09:54:05;;;;;;;21.40;5.80;;;4.30;61.90;;;;;;5053229;28;20404;-75
2022/01/21 09:56:32;;;;;;;15.10;4.90;;;4.50;58.90;;;;;;5048474;28;20480;-74
2022/01/21 09:58:59;;;;;;;16.47;5.20;;;4.50;57.90;;;;;;5054005;28;20459;-77
2022/01/21 10:01:25;;;;;;;14.82;5.18;;;4.30;58.30;;;;;;5048494;28;20459;-76
2022/01/21 10:03:52;;;;;;;10.45;4.60;;;4.20;60.60;;;;;;5054512;28;20441;-74
2022/01/21 10:06:21;;;;;;;13.25;5.20;;;4.10;62.50;;;;;;5052356;28;20409;-75
2022/01/21 10:08:48;;;;;;;13.25;5.30;;;4.10;63.20;;;;;;5048718;28;20401;-76
2022/01/21 10:11:14;;;;;;;11.23;5.00;;;4.40;62.90;;;;;;5045530;28;20852;-74
2022/01/21 10:13:39;;;;;;;14.57;4.90;;;4.60;60.10;;;;;;5030624;28;20465;-74
2022/01/21 10:16:06;;;;;;;14.25;5.00;;;4.70;59.50;;;;;;5032080;28;20420;-74
2022/01/21 10:18:32;;;;;;;14.88;4.60;;;4.80;60.80;;;;;;5051663;28;20763;-75
2022/01/21 10:21:04;;;;;;;13.00;4.70;;;5.00;55.40;;;;;;5030168;28;20405;-75
2022/01/21 10:23:34;;;;;;;12.23;3.43;;;4.80;56.40;;;;;;5049530;28;20467;-72
2022/01/21 10:26:04;;;;;;;13.40;4.43;;;4.60;58.40;;;;;;5051309;28;20860;-75
2022/01/21 10:28:30;;;;;;;16.90;4.00;;;4.60;61.00;;;;;;5045174;28;20419;-74
2022/01/21 10:31:27;;;;;;;8.65;4.28;;;4.70;59.50;;;;;;5043252;28;20483;-75
2022/01/21 10:33:56;;;;;;;14.10;4.00;;;4.80;58.90;;;;;;5038311;28;20418;-76
2022/01/21 10:36:28;;;;;;;17.80;3.90;;;4.70;58.60;;;;;;5063650;28;20415;-74
2022/01/21 10:39:19;;;;;;;14.23;4.15;;;4.80;59.20;;;;;;5066908;28;20454;-76
2022/01/21 10:41:47;;;;;;;17.30;4.70;;;4.90;58.90;;;;;;5051281;28;20485;-75
2022/01/21 10:44:18;;;;;;;18.13;4.43;;;5.00;58.10;;;;;;5052824;28;20413;-76
2022/01/21 10:47:00;;;;;;;14.07;4.50;;;5.20;56.20;;;;;;5057417;28;20397;-77
2022/01/21 10:49:26;;;;;;;17.27;5.55;;;5.40;55.70;;;;;;5064797;28;20454;-77
2022/01/21 10:51:52;;;;;;;19.63;4.60;;;5.60;55.20;;;;;;5062093;28;20400;-77
2022/01/21 10:54:28;;;;;;;11.60;4.20;;;5.80;51.90;;;;;;5058655;28;20496;-76
2022/01/21 10:57:12;;;;;;;10.10;3.55;;;5.80;51.50;;;;;;5055770;28;20401;-75
2022/01/21 10:59:46;;;;;;;14.68;4.60;;;5.90;49.90;;;;;;5052112;28;20404;-75
2022/01/21 11:02:12;;;;;;;13.80;4.47;;;5.90;50.40;;;;;;5053324;28;20470;-75
2022/01/21 11:04:42;;;;;;;15.32;4.30;;;5.90;49.40;;;;;;5050696;28;20411;-76
2022/01/21 11:07:11;;;;;;;12.02;4.38;;;5.90;50.30;;;;;;5050963;28;21159;-75
2022/01/21 11:09:39;;;;;;;16.90;4.75;;;6.00;50.70;;;;;;5053720;28;20608;-75
2022/01/21 11:12:15;;;;;;;14.35;4.45;;;6.20;50.60;;;;;;5032815;28;20409;-76
2022/01/21 11:14:57;;;;;;;19.52;4.20;;;6.50;48.00;;;;;;5045752;28;20405;-76
2022/01/21 11:17:22;;;;;;;10.80;4.32;;;6.60;46.60;;;;;;5051858;28;20427;-75
2022/01/21 11:20:16;;;;;;;16.83;4.25;;;6.60;46.10;;;;;;5059841;28;20821;-76
2022/01/21 11:22:57;;;;;;;15.63;4.18;;;6.50;47.10;;;;;;5052943;28;20401;-74
2022/01/21 11:25:46;;;;;;;14.30;4.70;;;6.30;47.80;;;;;;5035478;28;20401;-74
2022/01/21 11:28:15;;;;;;;18.13;4.68;;;6.40;47.70;;;;;;5052899;28;20400;-73
2022/01/21 11:30:41;;;;;;;16.83;4.90;;;6.50;47.70;;;;;;5059518;28;20396;-75
2022/01/21 11:33:07;;;;;;;13.88;4.65;;;6.60;46.90;;;;;;5055701;28;20443;-73
2022/01/21 11:35:33;;;;;;;14.93;4.53;;;6.60;46.20;;;;;;5055094;28;20568;-73
2022/01/21 11:38:04;;;;;;;14.02;4.10;;;6.60;46.40;;;;;;5066564;28;20381;-73
2022/01/21 11:40:30;;;;;;;17.02;4.57;;;6.70;46.00;;;;;;5057303;28;20400;-72
2022/01/21 11:42:57;;;;;;;15.98;4.30;;;6.90;46.60;;;;;;5049768;28;20470;-74
2022/01/21 11:45:42;;;;;;;13.82;4.10;;;7.10;44.80;;;;;;5048513;28;20428;-72
2022/01/21 11:50:45;;;;;;;15.52;4.97;;;7.20;43.40;;;;;;5054471;28;20393;-73
2022/01/21 11:53:11;;;;;;;13.63;4.72;;;7.10;43.80;;;;;;5043303;28;20417;-75
2022/01/21 11:55:45;;;;;;;11.63;3.78;;;7.10;44.80;;;;;;5062907;28;20402;-72
2022/01/21 11:58:23;;;;;;;23.50;4.20;;;7.00;44.00;;;;;;5055292;28;20677;-73
2022/01/21 12:00:52;;;;;;;12.23;4.47;;;6.80;44.80;;;;;;5050123;28;20466;-74
2022/01/21 12:03:21;;;;;;;12.05;4.40;;;6.90;45.70;;;;;;5052276;28;20497;-73
2022/01/21 12:05:47;;;;;;;13.10;4.60;;;6.90;45.50;;;;;;5053811;28;20386;-73
2022/01/21 12:08:13;;;;;;;11.32;4.28;;;6.80;46.40;;;;;;5034487;28;20398;-75
2022/01/21 12:10:44;;;;;;;12.15;4.40;;;6.70;46.80;;;;;;5053907;28;20400;-74
2022/01/21 12:13:14;;;;;;;15.52;5.30;;;6.60;48.40;;;;;;5052092;28;20458;-74
2022/01/21 12:18:10;;;;;;;10.87;4.40;;;6.60;50.60;;;;;;5053967;28;20405;-73
2022/01/21 12:20:36;;;;;;;17.52;5.53;;;6.90;48.30;;;;;;5053628;28;20405;-73
2022/01/21 12:23:16;;;;;;;9.77;4.57;;;7.00;49.30;;;;;;5032781;28;20459;-74
2022/01/21 12:26:12;;;;;;;17.45;5.10;;;7.00;48.10;;;;;;5033253;28;20938;-74
2022/01/21 12:29:03;;;;;;;12.50;5.20;;;7.10;47.80;;;;;;5032358;28;20409;-73
2022/01/21 12:31:51;;;;;;;15.50;5.03;;;7.10;47.40;;;;;;5022150;28;20402;-74
2022/01/21 12:34:17;;;;;;;20.17;4.75;;;7.10;46.70;;;;;;5053729;28;21442;-74
2022/01/21 12:36:53;;;;;;;13.85;5.18;;;7.10;45.90;;;;;;5052799;28;20400;-71
2022/01/21 12:39:41;;;;;;;13.65;5.40;;;6.90;47.20;;;;;;5052475;28;20895;-75
2022/01/21 12:42:24;;;;;;;12.10;4.75;;;6.90;48.00;;;;;;5035087;28;20813;-73
2022/01/21 12:45:18;;;;;;;18.05;5.30;;;6.70;49.40;;;;;;5053324;28;20406;-74
2022/01/21 12:47:48;;;;;;;12.63;5.60;;;6.60;51.40;;;;;;5051497;28;21040;-75
2022/01/21 12:50:26;;;;;;;10.93;5.13;;;6.70;52.80;;;;;;5033523;28;20931;-74
2022/01/21 12:58:15;;;;;;;12.87;5.00;;;6.90;52.50;;;;;;5047700;28;20431;-73
2022/01/21 13:00:42;;;;;;;20.33;5.63;;;7.20;50.00;;;;;;5058087;28;20401;-73
2022/01/21 13:03:31;;;;;;;16.25;5.30;;;7.20;49.60;;;;;;5053190;28;20401;-74
2022/01/21 13:06:21;;;;;;;12.88;5.28;;;7.00;49.30;;;;;;5035663;28;20439;-74
2022/01/21 13:09:06;;;;;;;23.83;5.18;;;7.10;47.60;;;;;;5051986;28;20423;-75
2022/01/21 13:11:33;;;;;;;19.88;5.70;;;6.90;49.20;;;;;;5052212;28;20918;-71
2022/01/21 13:17:05;;;;;;;10.95;5.10;;;6.70;52.50;;;;;;5045399;28;20392;-76
2022/01/21 13:19:45;;;;;;;16.05;5.10;;;6.70;51.20;;;;;;5052531;28;20885;-74
2022/01/21 13:22:32;;;;;;;19.70;6.00;;;6.70;52.00;;;;;;5034513;28;20400;-74
2022/01/21 13:25:04;;;;;;;19.30;6.70;;;6.70;51.40;;;;;;5051742;28;20474;-75
2022/01/21 13:27:31;;;;;;;22.23;7.70;;;6.70;53.10;;;;;;5051891;28;21053;-75
2022/01/21 13:30:04;;;;;;;18.35;6.03;;;6.80;52.30;;;;;;5056031;28;20437;-74
2022/01/21 13:32:30;;;;;;;21.35;7.00;;;6.80;52.60;;;;;;5066738;28;20894;-75
2022/01/21 13:35:09;;;;;;;16.77;5.50;;;6.80;53.10;;;;;;5058776;28;20432;-75
2022/01/21 13:37:38;;;;;;;23.30;5.70;;;7.00;52.10;;;;;;5056719;28;20499;-74
2022/01/21 13:40:05;;;;;;;12.70;4.70;;;7.10;51.40;;;;;;5059031;28;20393;-74
2022/01/21 13:42:32;;;;;;;22.02;5.60;;;7.00;51.00;;;;;;5039783;28;20829;-77
2022/01/21 13:45:01;;;;;;;16.50;5.35;;;7.00;50.80;;;;;;5056928;28;20459;-75